This is the latest recevied weather packets stored in our database for station/object G4MDP-13. If no packets are shown the sender has not sent any weather packets the latest 10 day(s).
| Time | Temp. | Humidity | Pressure | Rain* | Wind** | Luminosity | Snow |
|---|---|---|---|---|---|---|---|
| 1777321445 | 11.67° C | 69% | 1022 hPa | 0 mm | - | - | - |
| 1777320548 | 12.22° C | 69% | 1022.2 hPa | 0 mm | - | - | - |
| 1777320546 | 12.22° C | 69% | 1022.2 hPa | 0 mm | - | - | - |
| 1777319825 | 12.22° C | 69% | 1022.1 hPa | 0 mm | - | - | - |
| 1777319646 | 12.22° C | 69% | 1022 hPa | 0 mm | - | - | - |
| 1777319645 | 12.22° C | 69% | 1022 hPa | 0 mm | - | - | - |
| 1777318748 | 12.78° C | 68% | 1022.1 hPa | 0 mm | - | - | - |
| 1777318746 | 12.78° C | 68% | 1022.1 hPa | 0 mm | - | - | - |
| 1777318025 | 13.33° C | 66% | 1022 hPa | 0 mm | - | - | - |
| 1777317845 | 13.33° C | 65% | 1022.2 hPa | 0 mm | - | - | - |
| 1777317845 | 13.33° C | 65% | 1022.2 hPa | 0 mm | - | - | - |
| 1777316948 | 13.89° C | 62% | 1022.1 hPa | 0 mm | - | - | - |
| 1777316946 | 13.89° C | 62% | 1022.1 hPa | 0 mm | - | - | - |
| 1777316225 | 13.89° C | 59% | 1015.9 hPa | 0 mm | - | - | - |
| 1777316046 | 13.89° C | 60% | 1015.9 hPa | 0 mm | - | - | - |
| 1777316045 | 13.89° C | 60% | 1015.9 hPa | 0 mm | - | - | - |
| 1777315148 | 15° C | 58% | 1022.1 hPa | 0 mm | - | - | - |
| 1777315146 | 15° C | 58% | 1022.1 hPa | 0 mm | - | - | - |
| 1777314425 | 14.44° C | 59% | 1022 hPa | 0 mm | - | - | - |
| 1777314246 | 14.44° C | 59% | 1022 hPa | 0 mm | - | - | - |
| 1777314245 | 14.44° C | 59% | 1022 hPa | 0 mm | - | - | - |
| 1777313348 | 15.56° C | 56% | 1022.2 hPa | 0 mm | - | - | - |
| 1777313346 | 15.56° C | 56% | 1022.2 hPa | 0 mm | - | - | - |
| 1777312625 | 15.56° C | 51% | 1016 hPa | 0 mm | - | - | - |
| 1777312446 | 16.11° C | 49% | 1016 hPa | 0 mm | - | - | - |
* Rain latest hour (hover to see other rain measurements)
** Current wind speed in m/s (hover to see current wind gust speed)